Time;durP1;ratioP1;P1;durP2;ratioP2;P2;SDS_P1;SDS_P2;PMS_P1;PMS_P2;Temp;Humidity;BMP_temperature;BMP_pressure;BME280_temperature;BME280_humidity;BME280_pressure;Samples;Min_cycle;Max_cycle;Signal;HPM_P1;HPM_P2
2021/11/16 00:00:18;;;;;;;17.95;12.75;;;;;;;;;;5012774;28;20210;-76
2021/11/16 00:02:45;;;;;;;18.83;12.98;;;;;;;;;;5013572;28;20215;-77
2021/11/16 00:05:12;;;;;;;19.00;13.77;;;;;;;;;;5013319;28;20222;-77
2021/11/16 00:07:40;;;;;;;18.80;12.87;;;;;;;;;;5026468;28;20656;-77
2021/11/16 00:10:09;;;;;;;15.93;11.93;;;;;;;;;;5040802;28;20441;-77
2021/11/16 00:12:36;;;;;;;19.73;13.43;;;;;;;;;;5024533;28;20223;-76
2021/11/16 00:15:04;;;;;;;19.00;12.77;;;;;;;;;;5022907;28;20462;-77
2021/11/16 00:17:32;;;;;;;19.85;13.10;;;;;;;;;;5030508;28;20486;-76
2021/11/16 00:19:59;;;;;;;17.13;11.43;;;;;;;;;;5032392;28;20580;-77
2021/11/16 00:22:28;;;;;;;20.27;12.55;;;;;;;;;;5031775;28;20219;-77
2021/11/16 00:27:38;;;;;;;16.17;12.23;;;;;;;;;;5023369;28;20184;-77
2021/11/16 00:30:05;;;;;;;17.13;11.93;;;;;;;;;;5014758;28;20207;-77
2021/11/16 00:32:33;;;;;;;18.77;12.07;;;;;;;;;;5023948;28;20220;-77
2021/11/16 00:35:00;;;;;;;17.10;12.77;;;;;;;;;;5012902;28;20294;-76
2021/11/16 00:37:27;;;;;;;17.23;11.80;;;;;;;;;;5021489;28;20204;-77
2021/11/16 00:39:54;;;;;;;17.52;12.40;;;;;;;;;;5038058;28;20887;-76
2021/11/16 00:42:22;;;;;;;14.45;10.77;;;;;;;;;;5038133;28;20227;-77
2021/11/16 00:44:50;;;;;;;18.42;13.70;;;;;;;;;;5014356;28;20198;-77
2021/11/16 00:47:18;;;;;;;19.87;13.87;;;;;;;;;;5020050;28;20204;-76
2021/11/16 00:49:45;;;;;;;18.40;13.07;;;;;;;;;;4996262;28;20489;-78
2021/11/16 00:52:13;;;;;;;22.33;14.00;;;;;;;;;;5012000;28;20223;-77
2021/11/16 00:54:40;;;;;;;18.77;13.55;;;;;;;;;;5032724;28;20453;-77
2021/11/16 00:57:08;;;;;;;20.05;13.20;;;;;;;;;;5039715;28;20656;-78
2021/11/16 00:59:35;;;;;;;20.40;13.25;;;;;;;;;;5016118;28;20223;-77
2021/11/16 01:02:04;;;;;;;20.25;13.43;;;;;;;;;;5026548;28;20211;-77
2021/11/16 01:04:31;;;;;;;19.90;12.60;;;;;;;;;;5031522;28;20210;-77
2021/11/16 01:06:58;;;;;;;22.23;13.43;;;;;;;;;;5031811;28;20449;-77
2021/11/16 01:09:26;;;;;;;19.35;14.15;;;;;;;;;;5031801;28;20476;-76
2021/11/16 01:11:53;;;;;;;19.48;13.77;;;;;;;;;;5037479;28;20219;-78
2021/11/16 01:14:20;;;;;;;20.17;13.80;;;;;;;;;;5023929;28;20199;-77
2021/11/16 01:16:48;;;;;;;16.67;11.97;;;;;;;;;;5025001;28;20786;-77
2021/11/16 01:19:17;;;;;;;16.23;12.40;;;;;;;;;;5011978;28;20485;-77
2021/11/16 01:21:44;;;;;;;17.88;13.00;;;;;;;;;;5017146;28;20214;-77
2021/11/16 01:24:11;;;;;;;20.67;14.15;;;;;;;;;;5019931;28;20525;-77
2021/11/16 01:26:39;;;;;;;20.23;13.60;;;;;;;;;;5013622;28;20189;-77
2021/11/16 01:29:07;;;;;;;18.75;12.65;;;;;;;;;;5013752;28;20207;-77
2021/11/16 01:31:34;;;;;;;17.27;12.68;;;;;;;;;;5032573;28;20226;-77
2021/11/16 01:34:02;;;;;;;18.45;12.63;;;;;;;;;;5038701;28;20191;-77
2021/11/16 01:36:31;;;;;;;17.52;11.95;;;;;;;;;;5036000;28;20195;-77
2021/11/16 01:38:59;;;;;;;17.63;12.55;;;;;;;;;;5030751;28;20225;-77
2021/11/16 01:41:27;;;;;;;19.70;14.50;;;;;;;;;;5031076;28;20308;-77
2021/11/16 01:43:54;;;;;;;20.10;13.18;;;;;;;;;;5031366;28;20199;-78
2021/11/16 01:46:22;;;;;;;17.17;12.27;;;;;;;;;;5007680;28;20195;-78
2021/11/16 01:48:50;;;;;;;19.27;12.82;;;;;;;;;;5037793;28;20199;-76
2021/11/16 01:51:19;;;;;;;18.70;13.00;;;;;;;;;;5020272;28;20233;-77
2021/11/16 01:53:48;;;;;;;17.65;13.10;;;;;;;;;;5012425;28;20222;-77
2021/11/16 01:56:15;;;;;;;20.52;13.30;;;;;;;;;;5012298;28;20645;-77
2021/11/16 01:58:43;;;;;;;20.70;13.70;;;;;;;;;;5031377;28;20221;-78
2021/11/16 02:01:10;;;;;;;21.58;14.27;;;;;;;;;;5029202;28;20231;-77
2021/11/16 02:03:38;;;;;;;21.30;13.63;;;;;;;;;;5037630;28;20205;-77
2021/11/16 02:06:20;;;;;;;19.15;12.23;;;;;;;;;;5039242;28;20195;-77
2021/11/16 02:08:49;;;;;;;22.85;12.77;;;;;;;;;;5034398;28;20238;-78
2021/11/16 02:11:16;;;;;;;19.17;12.93;;;;;;;;;;5018537;28;20223;-77
2021/11/16 02:13:43;;;;;;;20.70;13.15;;;;;;;;;;4994208;28;20207;-77
2021/11/16 02:16:11;;;;;;;17.40;11.47;;;;;;;;;;5011190;28;20200;-77
2021/11/16 02:18:39;;;;;;;18.45;11.98;;;;;;;;;;5013385;28;20988;-77
2021/11/16 02:21:08;;;;;;;19.75;12.10;;;;;;;;;;5011524;28;20220;-77
2021/11/16 02:23:37;;;;;;;19.33;12.60;;;;;;;;;;4995931;28;20211;-77
2021/11/16 02:26:05;;;;;;;18.43;11.73;;;;;;;;;;5035240;28;20453;-77
2021/11/16 02:28:32;;;;;;;23.80;14.73;;;;;;;;;;5041193;28;20425;-78
2021/11/16 02:30:59;;;;;;;20.08;13.27;;;;;;;;;;5026041;28;20221;-77
2021/11/16 02:33:27;;;;;;;21.73;13.23;;;;;;;;;;5010680;28;20196;-77
2021/11/16 02:35:54;;;;;;;19.25;11.38;;;;;;;;;;5011739;28;20204;-76
2021/11/16 02:38:22;;;;;;;19.98;13.55;;;;;;;;;;5026262;28;20673;-76
2021/11/16 02:40:52;;;;;;;22.63;13.45;;;;;;;;;;5036312;28;20653;-76
2021/11/16 02:43:20;;;;;;;19.75;12.95;;;;;;;;;;5032551;28;20192;-76
2021/11/16 02:45:47;;;;;;;16.80;12.55;;;;;;;;;;5017161;28;20207;-77
2021/11/16 02:48:15;;;;;;;20.83;12.93;;;;;;;;;;5039247;28;20196;-76
2021/11/16 02:50:43;;;;;;;25.50;14.23;;;;;;;;;;5023219;28;20649;-76
2021/11/16 02:53:11;;;;;;;22.27;13.18;;;;;;;;;;5032898;28;20258;-77
2021/11/16 02:55:40;;;;;;;22.15;12.90;;;;;;;;;;5016902;28;20203;-76
2021/11/16 02:58:08;;;;;;;19.02;12.45;;;;;;;;;;4997662;28;20199;-77
2021/11/16 03:00:35;;;;;;;22.00;12.50;;;;;;;;;;4998706;28;20200;-77
2021/11/16 03:03:03;;;;;;;19.40;11.80;;;;;;;;;;5008281;28;20220;-76
2021/11/16 03:05:34;;;;;;;22.63;13.77;;;;;;;;;;5033078;28;20465;-77
2021/11/16 03:08:01;;;;;;;21.45;13.00;;;;;;;;;;5044291;28;20202;-77
2021/11/16 03:10:30;;;;;;;21.00;13.47;;;;;;;;;;5017320;28;20657;-77
2021/11/16 03:13:00;;;;;;;17.67;11.57;;;;;;;;;;5014514;28;20473;-76
2021/11/16 03:15:27;;;;;;;23.03;13.40;;;;;;;;;;5013378;28;20723;-76
2021/11/16 03:17:54;;;;;;;18.17;12.50;;;;;;;;;;5016858;28;20473;-76
2021/11/16 03:20:23;;;;;;;17.85;11.80;;;;;;;;;;5041369;28;20226;-76
2021/11/16 03:22:53;;;;;;;18.52;12.43;;;;;;;;;;5027426;28;20217;-77
2021/11/16 03:25:22;;;;;;;21.73;13.00;;;;;;;;;;5019599;28;20200;-76
2021/11/16 03:27:55;;;;;;;17.38;11.82;;;;;;;;;;4996762;28;20199;-77
2021/11/16 03:30:24;;;;;;;19.80;12.75;;;;;;;;;;5013730;28;20204;-76
2021/11/16 03:32:51;;;;;;;21.52;11.90;;;;;;;;;;5016970;28;20585;-76
2021/11/16 03:35:18;;;;;;;20.65;12.43;;;;;;;;;;5040393;28;20187;-76
2021/11/16 03:37:48;;;;;;;18.02;12.50;;;;;;;;;;5038470;28;20207;-77
2021/11/16 03:40:16;;;;;;;20.50;12.60;;;;;;;;;;5015458;28;20222;-76
2021/11/16 03:42:44;;;;;;;18.08;11.13;;;;;;;;;;5014124;28;20220;-76
2021/11/16 03:45:12;;;;;;;17.23;11.57;;;;;;;;;;5002549;28;20595;-77
2021/11/16 03:47:41;;;;;;;17.80;11.52;;;;;;;;;;5033475;28;20206;-77
2021/11/16 03:50:10;;;;;;;21.42;13.00;;;;;;;;;;5033730;28;20199;-76
2021/11/16 03:52:40;;;;;;;18.77;11.68;;;;;;;;;;5021137;28;20236;-77
2021/11/16 03:55:08;;;;;;;20.30;12.80;;;;;;;;;;5029734;28;20204;-78
2021/11/16 03:57:35;;;;;;;18.58;11.90;;;;;;;;;;5011924;28;20197;-76
2021/11/16 04:00:03;;;;;;;20.20;11.73;;;;;;;;;;5013070;28;20724;-76
2021/11/16 04:02:30;;;;;;;22.33;13.45;;;;;;;;;;5013185;28;20224;-76
2021/11/16 04:04:59;;;;;;;23.00;13.05;;;;;;;;;;5022689;28;20652;-76
2021/11/16 04:07:26;;;;;;;23.58;13.57;;;;;;;;;;5040610;28;20221;-76
2021/11/16 04:09:53;;;;;;;20.67;12.15;;;;;;;;;;5041283;28;20198;-76
2021/11/16 04:12:20;;;;;;;23.58;13.13;;;;;;;;;;5052238;28;20222;-76
2021/11/16 04:14:47;;;;;;;23.25;14.00;;;;;;;;;;5036242;28;20200;-76
2021/11/16 04:17:15;;;;;;;17.13;11.32;;;;;;;;;;5013149;28;20684;-76
2021/11/16 04:19:43;;;;;;;21.90;12.57;;;;;;;;;;4996206;28;20216;-76
2021/11/16 04:22:12;;;;;;;20.25;12.10;;;;;;;;;;5039657;28;20268;-75
2021/11/16 04:24:39;;;;;;;24.40;14.00;;;;;;;;;;5040520;28;20202;-76
2021/11/16 04:27:07;;;;;;;20.27;12.40;;;;;;;;;;5052337;28;20586;-76
2021/11/16 04:29:35;;;;;;;22.63;13.13;;;;;;;;;;5053518;28;20194;-76
2021/11/16 04:32:02;;;;;;;18.80;11.85;;;;;;;;;;5055036;28;20272;-76
2021/11/16 04:34:29;;;;;;;20.55;11.95;;;;;;;;;;5030306;28;20203;-76
2021/11/16 04:36:57;;;;;;;17.80;10.75;;;;;;;;;;5030856;28;20562;-77
2021/11/16 04:39:25;;;;;;;21.48;11.35;;;;;;;;;;5029805;28;20219;-76
2021/11/16 04:41:52;;;;;;;17.80;11.15;;;;;;;;;;5034624;28;20223;-77
2021/11/16 04:44:20;;;;;;;20.25;11.02;;;;;;;;;;5039283;28;20210;-76
2021/11/16 04:46:48;;;;;;;14.20;10.07;;;;;;;;;;5037784;28;20195;-76
2021/11/16 04:49:21;;;;;;;17.83;10.40;;;;;;;;;;5030277;28;20191;-76
2021/11/16 04:52:00;;;;;;;18.80;11.13;;;;;;;;;;5012161;28;20235;-77
2021/11/16 04:54:42;;;;;;;16.67;10.15;;;;;;;;;;5012683;28;20204;-76
2021/11/16 04:59:55;;;;;;;16.87;10.20;;;;;;;;;;5019002;28;20250;-76
2021/11/16 05:05:08;;;;;;;18.10;11.32;;;;;;;;;;5006477;28;20425;-77
2021/11/16 05:07:36;;;;;;;15.53;9.73;;;;;;;;;;5039196;28;20198;-76
2021/11/16 05:10:06;;;;;;;13.77;8.93;;;;;;;;;;5016672;28;20844;-76
2021/11/16 05:12:34;;;;;;;18.10;10.55;;;;;;;;;;5017447;28;20231;-76
2021/11/16 05:15:03;;;;;;;17.90;10.77;;;;;;;;;;5012416;28;20543;-77
2021/11/16 05:17:30;;;;;;;14.93;9.65;;;;;;;;;;5018776;28;20755;-76
2021/11/16 05:19:57;;;;;;;15.75;9.60;;;;;;;;;;5031420;28;20222;-76
2021/11/16 05:22:25;;;;;;;17.40;10.20;;;;;;;;;;5037314;28;20215;-76
2021/11/16 05:24:52;;;;;;;21.35;11.32;;;;;;;;;;5040904;28;20195;-75
2021/11/16 05:27:21;;;;;;;15.95;9.90;;;;;;;;;;5016592;28;20222;-77
2021/11/16 05:29:48;;;;;;;17.17;9.90;;;;;;;;;;5029720;28;20204;-76
2021/11/16 05:32:15;;;;;;;13.20;10.05;;;;;;;;;;5031114;28;20223;-77
2021/11/16 05:34:43;;;;;;;13.37;8.87;;;;;;;;;;5030876;28;20199;-76
2021/11/16 05:37:10;;;;;;;14.80;9.23;;;;;;;;;;5034717;28;20465;-76
2021/11/16 05:39:38;;;;;;;17.13;10.40;;;;;;;;;;5037442;28;20220;-76
2021/11/16 05:42:05;;;;;;;15.93;9.93;;;;;;;;;;5030308;28;20242;-78
2021/11/16 05:44:34;;;;;;;14.60;9.70;;;;;;;;;;5028097;28;20462;-76
2021/11/16 05:47:01;;;;;;;16.23;10.30;;;;;;;;;;5013585;28;20458;-76
2021/11/16 05:49:31;;;;;;;16.27;10.55;;;;;;;;;;5016373;28;20566;-76
2021/11/16 05:51:59;;;;;;;16.40;9.77;;;;;;;;;;5032132;28;20300;-76
2021/11/16 05:54:31;;;;;;;17.00;10.23;;;;;;;;;;5034390;28;20541;-76
2021/11/16 05:56:58;;;;;;;16.40;10.10;;;;;;;;;;5039943;28;20819;-78
2021/11/16 05:59:32;;;;;;;17.95;11.25;;;;;;;;;;5030937;28;20477;-77
2021/11/16 06:02:01;;;;;;;18.60;10.93;;;;;;;;;;5029011;28;20219;-77
2021/11/16 06:04:28;;;;;;;16.47;11.07;;;;;;;;;;5028703;28;20198;-77
2021/11/16 06:06:56;;;;;;;21.20;11.00;;;;;;;;;;5030429;28;20845;-77
2021/11/16 06:09:26;;;;;;;17.13;11.25;;;;;;;;;;5038540;28;20202;-76
2021/11/16 06:11:53;;;;;;;16.73;12.02;;;;;;;;;;5034252;28;20309;-76
2021/11/16 06:14:20;;;;;;;18.73;12.10;;;;;;;;;;5017946;28;20196;-76
2021/11/16 06:16:47;;;;;;;15.77;10.60;;;;;;;;;;5025390;28;20464;-76
2021/11/16 06:19:17;;;;;;;19.70;11.90;;;;;;;;;;5034601;28;20801;-76
2021/11/16 06:21:44;;;;;;;15.73;10.80;;;;;;;;;;5034594;28;20488;-76
2021/11/16 06:24:11;;;;;;;21.33;12.53;;;;;;;;;;5038832;28;20457;-77
2021/11/16 06:26:39;;;;;;;18.00;11.70;;;;;;;;;;5041841;28;20441;-76
2021/11/16 06:29:07;;;;;;;18.10;12.03;;;;;;;;;;5035309;28;20464;-76
2021/11/16 06:31:34;;;;;;;19.50;12.00;;;;;;;;;;4998224;28;20715;-76
2021/11/16 06:34:03;;;;;;;20.80;12.73;;;;;;;;;;5015183;28;20446;-76
2021/11/16 06:36:34;;;;;;;19.87;12.40;;;;;;;;;;5029062;28;20468;-76
2021/11/16 06:39:01;;;;;;;19.93;12.00;;;;;;;;;;5025510;28;20454;-78
2021/11/16 06:41:29;;;;;;;17.87;11.03;;;;;;;;;;5041699;28;20477;-76
2021/11/16 06:43:56;;;;;;;21.43;12.60;;;;;;;;;;5044777;28;20445;-77
2021/11/16 06:46:23;;;;;;;20.30;11.60;;;;;;;;;;5046578;28;20971;-76
2021/11/16 06:48:50;;;;;;;18.47;12.10;;;;;;;;;;5014758;28;20447;-76
2021/11/16 06:51:18;;;;;;;22.43;12.43;;;;;;;;;;5033283;28;20464;-76
2021/11/16 06:53:46;;;;;;;18.90;12.10;;;;;;;;;;5018659;28;20463;-76
2021/11/16 06:56:13;;;;;;;20.00;12.10;;;;;;;;;;5041712;28;20437;-76
2021/11/16 06:58:40;;;;;;;19.03;11.53;;;;;;;;;;5044827;28;20902;-76
2021/11/16 07:01:08;;;;;;;21.58;12.30;;;;;;;;;;5047341;28;20496;-76
2021/11/16 07:03:36;;;;;;;20.07;12.67;;;;;;;;;;5033925;28;20227;-77
2021/11/16 07:06:04;;;;;;;21.90;13.83;;;;;;;;;;5034439;28;20452;-76
2021/11/16 07:08:32;;;;;;;21.77;11.90;;;;;;;;;;5019658;28;20459;-76
2021/11/16 07:11:09;;;;;;;22.40;13.40;;;;;;;;;;5036083;28;20461;-76
2021/11/16 07:13:37;;;;;;;21.87;13.97;;;;;;;;;;5017183;28;20820;-81
2021/11/16 07:16:12;;;;;;;23.33;14.30;;;;;;;;;;5034206;28;20870;-81
2021/11/16 07:18:47;;;;;;;27.77;15.37;;;;;;;;;;5038634;28;20468;-75
2021/11/16 07:21:14;;;;;;;24.67;14.13;;;;;;;;;;5037824;28;20879;-77
2021/11/16 07:23:42;;;;;;;25.13;15.33;;;;;;;;;;5031008;28;20461;-76
2021/11/16 07:26:14;;;;;;;20.83;13.40;;;;;;;;;;5033021;28;20537;-76
2021/11/16 07:28:47;;;;;;;26.10;14.70;;;;;;;;;;5015146;28;20961;-77
2021/11/16 07:31:17;;;;;;;26.13;14.20;;;;;;;;;;5033498;28;20462;-76
2021/11/16 07:33:44;;;;;;;29.33;17.43;;;;;;;;;;5014931;28;20469;-77
2021/11/16 07:36:15;;;;;;;26.17;16.80;;;;;;;;;;5040018;28;20826;-77
2021/11/16 07:38:43;;;;;;;31.13;16.80;;;;;;;;;;5049122;28;20575;-76
2021/11/16 07:41:10;;;;;;;32.53;17.00;;;;;;;;;;5013368;28;20486;-77
2021/11/16 07:43:39;;;;;;;29.30;16.20;;;;;;;;;;5013220;28;20439;-78
2021/11/16 07:46:06;;;;;;;33.07;17.80;;;;;;;;;;5013540;28;20467;-77
2021/11/16 07:48:33;;;;;;;29.43;16.80;;;;;;;;;;5014427;28;20558;-76
2021/11/16 07:51:02;;;;;;;35.17;20.13;;;;;;;;;;5016336;28;20490;-77
2021/11/16 07:53:30;;;;;;;36.13;18.17;;;;;;;;;;5027130;28;20840;-77
2021/11/16 07:55:59;;;;;;;25.03;15.50;;;;;;;;;;5033424;28;20873;-76
2021/11/16 07:58:30;;;;;;;28.67;17.50;;;;;;;;;;5040269;28;20430;-77
2021/11/16 08:01:01;;;;;;;29.20;16.00;;;;;;;;;;5032892;28;20473;-76
2021/11/16 08:03:28;;;;;;;26.10;15.37;;;;;;;;;;5051873;28;20249;-76
2021/11/16 08:06:03;;;;;;;29.13;15.40;;;;;;;;;;5034935;28;20480;-76
2021/11/16 08:08:52;;;;;;;29.70;16.17;;;;;;;;;;5046144;28;20462;-77
2021/11/16 08:11:22;;;;;;;32.10;15.77;;;;;;;;;;5018023;28;20999;-76
2021/11/16 08:13:51;;;;;;;27.40;15.90;;;;;;;;;;5019578;28;20446;-77
2021/11/16 08:16:20;;;;;;;26.27;16.10;;;;;;;;;;5035723;28;20446;-76
2021/11/16 08:18:49;;;;;;;26.37;15.70;;;;;;;;;;5038051;28;20532;-76
2021/11/16 08:21:18;;;;;;;25.97;15.70;;;;;;;;;;5040826;28;20599;-76
2021/11/16 08:23:48;;;;;;;26.60;15.63;;;;;;;;;;5032618;28;20449;-76
2021/11/16 08:26:15;;;;;;;26.57;15.97;;;;;;;;;;5033374;28;20504;-76
2021/11/16 08:28:43;;;;;;;24.70;14.93;;;;;;;;;;5031897;28;20464;-76
2021/11/16 08:31:11;;;;;;;27.40;15.63;;;;;;;;;;5030574;28;20472;-76
2021/11/16 08:33:39;;;;;;;30.20;16.50;;;;;;;;;;5015349;28;20456;-76
2021/11/16 08:36:07;;;;;;;32.83;18.43;;;;;;;;;;5033898;28;20446;-76
2021/11/16 08:38:34;;;;;;;28.60;17.50;;;;;;;;;;5031165;28;20469;-76
2021/11/16 08:41:02;;;;;;;30.60;17.50;;;;;;;;;;5039501;28;20488;-76
2021/11/16 08:43:36;;;;;;;24.77;15.90;;;;;;;;;;5032096;28;20460;-76
2021/11/16 08:46:04;;;;;;;28.17;15.93;;;;;;;;;;5032147;28;20442;-76
2021/11/16 08:48:32;;;;;;;24.77;14.37;;;;;;;;;;5022948;28;20459;-76
2021/11/16 08:51:02;;;;;;;24.97;14.40;;;;;;;;;;5012619;28;20466;-77
2021/11/16 08:53:31;;;;;;;29.27;14.47;;;;;;;;;;5034054;28;20580;-76
2021/11/16 08:58:40;;;;;;;25.60;15.20;;;;;;;;;;4975098;28;20993;-77
2021/11/16 09:01:08;;;;;;;26.90;14.50;;;;;;;;;;4988095;28;20590;-77
2021/11/16 09:03:36;;;;;;;23.80;13.50;;;;;;;;;;4979713;28;20472;-77
2021/11/16 09:06:14;;;;;;;20.50;11.73;;;;;;;;;;4972996;28;20493;-75
2021/11/16 09:08:42;;;;;;;22.70;13.53;;;;;;;;;;4978179;28;20637;-76
2021/11/16 09:11:12;;;;;;;21.33;14.00;;;;;;;;;;4981061;28;20535;-75
2021/11/16 09:16:22;;;;;;;23.60;12.97;;;;;;;;;;4950873;28;20464;-76
2021/11/16 09:18:50;;;;;;;21.00;13.60;;;;;;;;;;4951246;28;20450;-76
2021/11/16 09:21:20;;;;;;;18.17;11.00;;;;;;;;;;4947109;28;20566;-76
2021/11/16 09:23:49;;;;;;;23.23;13.10;;;;;;;;;;4938846;29;20466;-76
2021/11/16 09:26:23;;;;;;;18.17;12.60;;;;;;;;;;4935487;28;20450;-77
2021/11/16 09:28:52;;;;;;;21.60;12.60;;;;;;;;;;4929241;28;20678;-76
2021/11/16 09:31:22;;;;;;;18.33;12.27;;;;;;;;;;4970127;28;20477;-76
2021/11/16 09:33:50;;;;;;;18.77;12.73;;;;;;;;;;4978472;28;20450;-76
2021/11/16 09:36:23;;;;;;;23.20;13.43;;;;;;;;;;5003431;28;20981;-77
2021/11/16 09:38:52;;;;;;;21.50;12.90;;;;;;;;;;5018105;28;20457;-77
2021/11/16 09:41:30;;;;;;;25.43;13.27;;;;;;;;;;5019964;28;21005;-77
2021/11/16 09:43:58;;;;;;;23.83;14.50;;;;;;;;;;4994169;28;20533;-76
2021/11/16 09:46:26;;;;;;;23.70;13.87;;;;;;;;;;5019858;28;20542;-76
2021/11/16 09:48:57;;;;;;;23.07;15.37;;;;;;;;;;5010322;28;20796;-77
2021/11/16 09:51:26;;;;;;;25.77;15.80;;;;;;;;;;5011100;28;20463;-77
2021/11/16 09:54:02;;;;;;;21.30;12.30;;;;;;;;;;5012682;28;20921;-76
2021/11/16 09:56:29;;;;;;;22.80;13.80;;;;;;;;;;5012449;28;20540;-77
2021/11/16 09:58:58;;;;;;;26.00;13.83;;;;;;;;;;5012154;28;20936;-77
2021/11/16 10:01:26;;;;;;;26.87;16.07;;;;;;;;;;5013624;28;20524;-76
2021/11/16 10:04:08;;;;;;;22.83;12.87;;;;;;;;;;5038341;28;20529;-77
2021/11/16 10:06:37;;;;;;;24.57;13.50;;;;;;;;;;5016644;28;20943;-77
2021/11/16 10:09:05;;;;;;;23.53;13.87;;;;;;;;;;5029909;28;20993;-77
2021/11/16 10:11:33;;;;;;;23.90;14.67;;;;;;;;;;5030818;28;20461;-77
2021/11/16 10:14:00;;;;;;;29.07;15.20;;;;;;;;;;5030640;28;20442;-76
2021/11/16 10:16:27;;;;;;;21.77;14.53;;;;;;;;;;5017091;28;20463;-77
2021/11/16 10:18:54;;;;;;;24.07;13.93;;;;;;;;;;5013714;28;20446;-76
2021/11/16 10:21:22;;;;;;;25.80;15.87;;;;;;;;;;5013261;28;21059;-76
2021/11/16 10:23:54;;;;;;;22.03;13.80;;;;;;;;;;5030070;28;20450;-76
2021/11/16 10:26:21;;;;;;;22.23;14.23;;;;;;;;;;5038308;28;20817;-75
2021/11/16 10:28:50;;;;;;;21.80;13.87;;;;;;;;;;5050780;28;20451;-76
2021/11/16 10:31:17;;;;;;;20.23;11.73;;;;;;;;;;5051193;28;20549;-76
2021/11/16 10:33:49;;;;;;;18.73;11.73;;;;;;;;;;5045332;28;20868;-76
2021/11/16 10:36:20;;;;;;;19.90;12.10;;;;;;;;;;5051240;28;20449;-76
2021/11/16 10:38:50;;;;;;;21.40;11.90;;;;;;;;;;5016600;28;20904;-76
2021/11/16 10:41:19;;;;;;;23.50;13.37;;;;;;;;;;5037940;28;20481;-76
2021/11/16 10:43:50;;;;;;;24.00;14.07;;;;;;;;;;5010203;28;20561;-76
2021/11/16 10:46:19;;;;;;;20.07;12.57;;;;;;;;;;5010408;28;20453;-77
2021/11/16 10:48:47;;;;;;;21.47;13.83;;;;;;;;;;5027375;28;20457;-76
2021/11/16 10:51:16;;;;;;;21.03;13.00;;;;;;;;;;5013538;28;20520;-76
2021/11/16 10:53:48;;;;;;;18.77;11.13;;;;;;;;;;5029730;28;20537;-76
2021/11/16 10:56:17;;;;;;;19.80;12.67;;;;;;;;;;5037710;28;20914;-77
2021/11/16 10:58:46;;;;;;;16.53;10.40;;;;;;;;;;5044442;28;20499;-77
2021/11/16 11:01:15;;;;;;;17.63;12.43;;;;;;;;;;5052382;28;20485;-76
2021/11/16 11:03:44;;;;;;;14.77;9.90;;;;;;;;;;5035038;28;20448;-76
2021/11/16 11:06:14;;;;;;;18.23;12.50;;;;;;;;;;5036852;28;20448;-75
2021/11/16 11:08:42;;;;;;;15.40;10.90;;;;;;;;;;5021202;28;20462;-77
2021/11/16 11:11:15;;;;;;;16.93;11.50;;;;;;;;;;5022365;28;20489;-77
2021/11/16 11:13:42;;;;;;;16.07;11.10;;;;;;;;;;5029055;28;20453;-77
2021/11/16 11:16:13;;;;;;;17.40;11.47;;;;;;;;;;5053897;28;20832;-76
2021/11/16 11:18:41;;;;;;;15.43;10.80;;;;;;;;;;5035504;28;20567;-76
2021/11/16 11:21:09;;;;;;;15.60;11.00;;;;;;;;;;5044737;28;20995;-76
2021/11/16 11:23:40;;;;;;;13.77;8.93;;;;;;;;;;5021406;28;20465;-74
2021/11/16 11:26:18;;;;;;;15.00;9.80;;;;;;;;;;5040837;28;20499;-77
2021/11/16 11:28:54;;;;;;;15.60;10.30;;;;;;;;;;5022187;28;20821;-77
2021/11/16 11:31:26;;;;;;;14.17;9.67;;;;;;;;;;5030612;28;20556;-75
2021/11/16 11:33:54;;;;;;;13.23;9.37;;;;;;;;;;5014031;28;20450;-77
2021/11/16 11:36:21;;;;;;;14.43;9.03;;;;;;;;;;5012678;28;20450;-76
2021/11/16 11:38:49;;;;;;;13.70;8.87;;;;;;;;;;5016913;28;20545;-77
2021/11/16 11:41:16;;;;;;;17.60;9.63;;;;;;;;;;5036836;28;20944;-77
2021/11/16 11:43:47;;;;;;;12.77;8.87;;;;;;;;;;5041133;28;20440;-77
2021/11/16 11:46:14;;;;;;;14.03;9.17;;;;;;;;;;5051411;28;20480;-75
2021/11/16 11:48:46;;;;;;;14.33;9.57;;;;;;;;;;5051929;28;20452;-77
2021/11/16 11:51:14;;;;;;;9.73;7.97;;;;;;;;;;5052175;28;20548;-77
2021/11/16 11:53:42;;;;;;;9.17;6.87;;;;;;;;;;5053976;28;20498;-77
2021/11/16 11:56:10;;;;;;;15.80;9.30;;;;;;;;;;5033830;28;20509;-78
2021/11/16 11:58:39;;;;;;;14.60;8.80;;;;;;;;;;5015764;28;20920;-77
2021/11/16 12:01:08;;;;;;;10.13;6.70;;;;;;;;;;5015260;28;20888;-77
2021/11/16 12:03:35;;;;;;;9.17;6.00;;;;;;;;;;5027250;28;20452;-77
2021/11/16 12:06:05;;;;;;;8.90;6.47;;;;;;;;;;5039262;28;20927;-76
2021/11/16 12:08:32;;;;;;;8.70;6.77;;;;;;;;;;5050786;28;20544;-77
2021/11/16 12:11:00;;;;;;;11.93;7.60;;;;;;;;;;5038081;28;20549;-76
2021/11/16 12:13:30;;;;;;;15.87;9.97;;;;;;;;;;5037039;28;20809;-76
2021/11/16 12:16:02;;;;;;;11.90;8.07;;;;;;;;;;5021526;28;20549;-76
2021/11/16 12:18:44;;;;;;;16.50;7.77;;;;;;;;;;5014196;28;20474;-76
2021/11/16 12:21:26;;;;;;;10.10;7.00;;;;;;;;;;5006016;28;20469;-76
2021/11/16 12:23:58;;;;;;;11.50;7.00;;;;;;;;;;5003345;28;20471;-76
2021/11/16 12:26:26;;;;;;;14.13;7.00;;;;;;;;;;5027905;28;20939;-76
2021/11/16 12:28:53;;;;;;;11.73;7.33;;;;;;;;;;5028319;28;20692;-77
2021/11/16 12:31:24;;;;;;;11.43;7.20;;;;;;;;;;5019580;28;21003;-77
2021/11/16 12:33:51;;;;;;;9.10;6.47;;;;;;;;;;5013589;28;20796;-76
2021/11/16 12:36:22;;;;;;;13.37;7.70;;;;;;;;;;5004084;28;20517;-77
2021/11/16 12:38:50;;;;;;;12.30;8.70;;;;;;;;;;5002195;28;20533;-76
2021/11/16 12:41:32;;;;;;;19.03;9.97;;;;;;;;;;5012697;28;20459;-76
2021/11/16 12:44:02;;;;;;;13.57;8.30;;;;;;;;;;5013563;28;20449;-77
2021/11/16 12:46:32;;;;;;;23.97;13.60;;;;;;;;;;5019217;28;20460;-76
2021/11/16 12:49:00;;;;;;;15.00;9.37;;;;;;;;;;5000127;28;20439;-77
2021/11/16 12:51:30;;;;;;;11.80;7.57;;;;;;;;;;5012904;28;20465;-76
2021/11/16 12:53:59;;;;;;;9.50;6.87;;;;;;;;;;5015276;28;20454;-77
2021/11/16 12:56:46;;;;;;;10.27;6.73;;;;;;;;;;5032275;28;20524;-76
2021/11/16 12:59:16;;;;;;;11.67;6.97;;;;;;;;;;5031723;28;20449;-77
2021/11/16 13:01:44;;;;;;;9.10;7.27;;;;;;;;;;5020595;28;20842;-75
2021/11/16 13:04:13;;;;;;;14.37;7.27;;;;;;;;;;5033554;28;20469;-77
2021/11/16 13:06:41;;;;;;;12.00;7.03;;;;;;;;;;5038200;28;20787;-77
2021/11/16 13:09:09;;;;;;;11.73;7.10;;;;;;;;;;5040338;28;20444;-76
2021/11/16 13:11:40;;;;;;;12.87;7.20;;;;;;;;;;5033488;28;20849;-76
2021/11/16 13:14:08;;;;;;;11.10;5.70;;;;;;;;;;5034345;28;20452;-76
2021/11/16 13:16:37;;;;;;;9.17;7.03;;;;;;;;;;5036174;28;20468;-76
2021/11/16 13:19:05;;;;;;;9.70;6.00;;;;;;;;;;5031932;28;20452;-76
2021/11/16 13:21:38;;;;;;;11.13;6.93;;;;;;;;;;5016194;28;20464;-76
2021/11/16 13:24:07;;;;;;;12.00;6.47;;;;;;;;;;5032365;28;20445;-76
2021/11/16 13:26:36;;;;;;;9.33;6.60;;;;;;;;;;5015935;28;20449;-77
2021/11/16 13:29:19;;;;;;;11.63;6.20;;;;;;;;;;5033822;28;20473;-76
2021/11/16 13:31:52;;;;;;;9.10;5.60;;;;;;;;;;5024283;28;20480;-77
2021/11/16 13:34:20;;;;;;;8.47;6.50;;;;;;;;;;5033026;28;20883;-75
2021/11/16 13:36:49;;;;;;;11.97;6.10;;;;;;;;;;5050790;28;20605;-76
2021/11/16 13:39:21;;;;;;;8.90;5.90;;;;;;;;;;5047274;28;20455;-76
2021/11/16 13:41:50;;;;;;;8.53;6.43;;;;;;;;;;5011310;28;20497;-77
2021/11/16 13:44:20;;;;;;;8.57;5.20;;;;;;;;;;5033406;28;20442;-77
2021/11/16 13:46:52;;;;;;;10.80;6.50;;;;;;;;;;5017198;28;20648;-77
2021/11/16 13:49:25;;;;;;;9.93;6.77;;;;;;;;;;5029292;28;20454;-76
2021/11/16 13:51:52;;;;;;;8.10;5.97;;;;;;;;;;5022366;28;20494;-75
2021/11/16 13:54:19;;;;;;;13.33;7.70;;;;;;;;;;5011006;28;20975;-76
2021/11/16 13:56:47;;;;;;;11.53;7.63;;;;;;;;;;5015092;28;20468;-76
2021/11/16 13:59:15;;;;;;;10.80;6.93;;;;;;;;;;5035364;28;20437;-76
2021/11/16 14:01:42;;;;;;;11.00;6.83;;;;;;;;;;5033345;28;20482;-76
2021/11/16 14:04:11;;;;;;;10.30;7.53;;;;;;;;;;5017261;28;20464;-76
2021/11/16 14:06:39;;;;;;;9.37;6.10;;;;;;;;;;5016918;28;20455;-76
2021/11/16 14:09:17;;;;;;;11.57;7.03;;;;;;;;;;5030653;28;20445;-77
2021/11/16 14:11:52;;;;;;;10.40;6.60;;;;;;;;;;5030249;28;20465;-77
2021/11/16 14:14:21;;;;;;;8.97;6.40;;;;;;;;;;5030404;28;20469;-76
2021/11/16 14:16:49;;;;;;;12.13;7.33;;;;;;;;;;5037675;28;20489;-76
2021/11/16 14:19:17;;;;;;;16.60;10.10;;;;;;;;;;5036809;28;20442;-76
2021/11/16 14:21:46;;;;;;;14.80;9.20;;;;;;;;;;5018879;28;20483;-77
2021/11/16 14:24:14;;;;;;;12.73;8.27;;;;;;;;;;5011129;28;20505;-76
2021/11/16 14:26:44;;;;;;;11.40;7.97;;;;;;;;;;5009664;28;20848;-76
2021/11/16 14:29:16;;;;;;;9.53;6.90;;;;;;;;;;5017095;28;20496;-75
2021/11/16 14:31:44;;;;;;;12.93;8.63;;;;;;;;;;5036255;28;20460;-76
2021/11/16 14:34:12;;;;;;;8.70;6.40;;;;;;;;;;5038632;28;20982;-77
2021/11/16 14:36:41;;;;;;;11.87;8.80;;;;;;;;;;5054317;28;20444;-80
2021/11/16 14:39:11;;;;;;;14.53;8.60;;;;;;;;;;5018453;28;20484;-77
2021/11/16 14:41:41;;;;;;;12.70;8.50;;;;;;;;;;5034933;28;20461;-78
2021/11/16 14:44:10;;;;;;;14.37;8.70;;;;;;;;;;5034398;28;20964;-79